Time;durP1;ratioP1;P1;durP2;ratioP2;P2;SDS_P1;SDS_P2;PMS_P1;PMS_P2;Temp;Humidity;BMP_temperature;BMP_pressure;BME280_temperature;BME280_humidity;BME280_pressure;Samples;Min_cycle;Max_cycle;Signal;HPM_P1;HPM_P2
2023/02/02 00:01:44;;;;;;;9.63;3.53;;;5.70;99.90;;;;;;5049295;28;20980;-74
2023/02/02 00:04:16;;;;;;;10.57;3.78;;;5.70;99.90;;;;;;5049531;28;20763;-74
2023/02/02 00:06:42;;;;;;;8.75;3.30;;;5.60;99.90;;;;;;5041732;28;20381;-74
2023/02/02 00:09:10;;;;;;;6.37;3.30;;;5.60;99.90;;;;;;5049478;28;20743;-74
2023/02/02 00:11:35;;;;;;;11.60;3.30;;;5.60;99.90;;;;;;5049328;28;20438;-74
2023/02/02 00:14:01;;;;;;;8.55;2.92;;;5.60;99.90;;;;;;5049368;28;20461;-74
2023/02/02 00:16:29;;;;;;;7.28;3.33;;;5.60;99.90;;;;;;5049039;28;20834;-74
2023/02/02 00:19:06;;;;;;;9.38;3.15;;;5.50;99.90;;;;;;5049453;28;20390;-74
2023/02/02 00:21:32;;;;;;;9.43;3.37;;;5.60;99.90;;;;;;5049238;28;20377;-74
2023/02/02 00:23:58;;;;;;;6.47;3.50;;;5.50;99.90;;;;;;5052531;28;20848;-74
2023/02/02 00:26:23;;;;;;;9.20;3.55;;;5.50;99.90;;;;;;5052563;28;20393;-74
2023/02/02 00:28:49;;;;;;;9.13;3.65;;;5.40;99.90;;;;;;5052953;28;20386;-75
2023/02/02 00:31:14;;;;;;;10.07;3.50;;;5.40;99.90;;;;;;5052730;28;20392;-74
2023/02/02 00:33:44;;;;;;;10.98;3.42;;;5.40;99.90;;;;;;5051372;28;20377;-74
2023/02/02 00:36:10;;;;;;;9.80;2.92;;;5.40;99.90;;;;;;5052246;28;20459;-74
2023/02/02 00:38:36;;;;;;;8.07;3.40;;;5.40;99.90;;;;;;5052629;28;20755;-73
2023/02/02 00:41:02;;;;;;;6.35;2.70;;;5.40;99.90;;;;;;5051125;28;20386;-73
2023/02/02 00:43:28;;;;;;;9.02;3.42;;;5.40;99.90;;;;;;5052658;28;20397;-75
2023/02/02 00:45:54;;;;;;;6.27;2.90;;;5.40;99.90;;;;;;5050874;28;20488;-74
2023/02/02 00:48:19;;;;;;;7.60;3.30;;;5.40;99.90;;;;;;5052354;28;20468;-74
2023/02/02 00:50:45;;;;;;;9.57;3.60;;;5.30;99.90;;;;;;5052314;28;20470;-74
2023/02/02 00:53:10;;;;;;;9.57;3.15;;;5.30;99.90;;;;;;5051055;28;20389;-74
2023/02/02 00:55:36;;;;;;;7.60;3.40;;;5.40;99.90;;;;;;5051958;28;21055;-74
2023/02/02 00:58:01;;;;;;;7.68;3.38;;;5.40;99.90;;;;;;5052212;28;21138;-73
2023/02/02 01:00:27;;;;;;;10.68;3.53;;;5.40;99.90;;;;;;5052162;28;20373;-74
2023/02/02 01:02:54;;;;;;;9.45;3.67;;;5.40;99.90;;;;;;5050612;28;20393;-74
2023/02/02 01:05:20;;;;;;;9.73;2.90;;;5.40;99.90;;;;;;5051794;28;20767;-74
2023/02/02 01:07:46;;;;;;;7.10;3.08;;;5.30;99.90;;;;;;5051932;28;20396;-74
2023/02/02 01:10:15;;;;;;;7.93;3.10;;;5.40;99.90;;;;;;5051967;28;20450;-74
2023/02/02 01:12:42;;;;;;;9.35;3.28;;;5.30;99.90;;;;;;5050646;28;20394;-74
2023/02/02 01:15:09;;;;;;;9.37;4.00;;;5.30;99.90;;;;;;5050613;28;20432;-74
2023/02/02 01:17:34;;;;;;;10.63;3.30;;;5.30;99.90;;;;;;5050102;28;20407;-74
2023/02/02 01:20:00;;;;;;;6.57;3.20;;;5.40;99.90;;;;;;5050609;28;20887;-74
2023/02/02 01:22:25;;;;;;;9.50;3.40;;;5.40;99.90;;;;;;5051721;28;20436;-74
2023/02/02 01:24:51;;;;;;;8.90;3.10;;;5.30;99.90;;;;;;5051757;28;20393;-74
2023/02/02 01:27:17;;;;;;;9.77;3.00;;;5.30;99.90;;;;;;5049969;28;20395;-74
2023/02/02 01:29:43;;;;;;;8.25;3.20;;;5.40;99.90;;;;;;5051672;28;20382;-74
2023/02/02 01:32:08;;;;;;;4.90;2.50;;;5.40;99.90;;;;;;5051548;28;20388;-74
2023/02/02 01:34:34;;;;;;;9.87;2.90;;;5.40;99.90;;;;;;5050858;28;20449;-74
2023/02/02 01:36:59;;;;;;;6.57;3.00;;;5.40;99.90;;;;;;5049772;28;20393;-74
2023/02/02 01:39:25;;;;;;;7.70;3.40;;;5.30;99.90;;;;;;5051515;28;20450;-74
2023/02/02 01:41:51;;;;;;;8.80;3.33;;;5.40;99.90;;;;;;5051381;28;20381;-73
2023/02/02 01:44:54;;;;;;;5.77;2.90;;;5.40;99.90;;;;;;5051590;28;20374;-74
2023/02/02 01:47:24;;;;;;;5.90;2.80;;;5.40;99.90;;;;;;5051033;28;20782;-74
2023/02/02 01:49:51;;;;;;;6.15;2.97;;;5.40;99.90;;;;;;5051419;28;20468;-74
2023/02/02 01:52:21;;;;;;;7.78;3.45;;;5.40;99.90;;;;;;5051199;28;20393;-74
2023/02/02 01:54:56;;;;;;;7.85;2.75;;;5.30;99.90;;;;;;5051171;28;20443;-74
2023/02/02 01:57:37;;;;;;;7.47;3.30;;;5.30;99.90;;;;;;5050789;28;20401;-74
2023/02/02 02:00:07;;;;;;;8.68;2.75;;;5.30;99.90;;;;;;5051000;28;20775;-74
2023/02/02 02:02:33;;;;;;;5.60;2.60;;;5.40;99.90;;;;;;5049497;28;20394;-74
2023/02/02 02:05:01;;;;;;;4.32;2.25;;;5.30;99.90;;;;;;5050915;28;20381;-74
2023/02/02 02:07:28;;;;;;;7.00;2.40;;;5.40;99.90;;;;;;5050519;28;20403;-74
2023/02/02 02:09:53;;;;;;;5.20;2.07;;;5.40;99.90;;;;;;5050878;28;20523;-74
2023/02/02 02:12:19;;;;;;;6.07;2.20;;;5.50;99.90;;;;;;5050915;28;20393;-74
2023/02/02 02:18:01;;;;;;;4.78;2.00;;;5.50;99.90;;;;;;5050547;28;20460;-74
2023/02/02 02:27:28;;;;;;;3.28;2.10;;;5.50;99.90;;;;;;5050313;28;20396;-74
2023/02/02 02:30:30;;;;;;;4.68;2.33;;;5.60;99.90;;;;;;5050517;28;20433;-74
2023/02/02 02:33:09;;;;;;;4.77;2.43;;;5.60;99.90;;;;;;5050372;28;20421;-74
2023/02/02 02:36:01;;;;;;;3.85;2.00;;;5.60;99.90;;;;;;5050048;28;20393;-73
2023/02/02 02:38:38;;;;;;;5.20;2.10;;;5.60;99.90;;;;;;5050370;28;20456;-74
2023/02/02 02:41:11;;;;;;;7.30;2.78;;;5.50;99.90;;;;;;5050247;28;20381;-73
2023/02/02 02:43:44;;;;;;;4.55;2.38;;;5.60;99.90;;;;;;5050596;28;20366;-74
2023/02/02 02:46:11;;;;;;;6.43;2.20;;;5.60;99.90;;;;;;5049039;28;20476;-73
2023/02/02 02:48:37;;;;;;;4.60;2.70;;;5.70;99.90;;;;;;5050105;28;20385;-73
2023/02/02 02:51:05;;;;;;;6.35;2.10;;;5.70;99.90;;;;;;5050190;28;20386;-73
2023/02/02 02:53:32;;;;;;;4.20;2.45;;;5.60;99.90;;;;;;5050261;28;20713;-73
2023/02/02 02:56:16;;;;;;;4.05;2.30;;;5.70;99.90;;;;;;5048515;28;20382;-73
2023/02/02 02:59:01;;;;;;;9.02;2.80;;;5.60;99.90;;;;;;5050158;28;20374;-73
2023/02/02 03:01:54;;;;;;;5.68;3.08;;;5.70;99.90;;;;;;5073209;22;20397;-71
2023/02/02 03:04:50;;;;;;;5.15;2.85;;;5.60;99.90;;;;;;5021595;28;20396;-73
2023/02/02 03:07:40;;;;;;;7.68;2.75;;;5.60;99.90;;;;;;5028356;28;20399;-73
2023/02/02 03:10:08;;;;;;;5.43;3.03;;;5.50;99.90;;;;;;5021032;28;20399;-72
2023/02/02 03:12:42;;;;;;;8.15;3.00;;;5.60;99.90;;;;;;5030107;28;20769;-73
2023/02/02 03:15:08;;;;;;;6.85;2.95;;;5.60;99.90;;;;;;5030012;28;20387;-73
2023/02/02 03:17:34;;;;;;;9.90;2.50;;;5.60;99.90;;;;;;5029496;28;20442;-73
2023/02/02 03:19:59;;;;;;;3.97;3.03;;;5.70;99.90;;;;;;5029935;28;20461;-74
2023/02/02 03:22:25;;;;;;;10.53;3.20;;;5.70;99.90;;;;;;5029754;28;20773;-74
2023/02/02 03:24:50;;;;;;;6.57;3.17;;;5.70;99.90;;;;;;5029966;28;20444;-73
2023/02/02 03:27:16;;;;;;;8.00;3.10;;;5.60;99.90;;;;;;5029623;28;20441;-73
2023/02/02 03:29:41;;;;;;;9.13;3.53;;;5.60;99.90;;;;;;5029783;28;20384;-74
2023/02/02 03:32:07;;;;;;;5.97;2.90;;;5.60;99.90;;;;;;5029801;28;20819;-73
2023/02/02 03:34:32;;;;;;;7.40;3.40;;;5.60;99.90;;;;;;5029953;28;20390;-73
2023/02/02 03:36:58;;;;;;;9.40;3.40;;;5.60;99.90;;;;;;5029902;28;20433;-74
2023/02/02 03:39:23;;;;;;;9.55;3.60;;;5.60;99.90;;;;;;5029687;28;20383;-74
2023/02/02 03:41:49;;;;;;;9.90;3.75;;;5.60;99.90;;;;;;5029715;28;20499;-74
2023/02/02 03:44:14;;;;;;;7.60;3.70;;;5.50;99.90;;;;;;5029793;28;20383;-74
2023/02/02 03:46:40;;;;;;;8.50;3.97;;;5.50;99.90;;;;;;5029463;28;20872;-74
2023/02/02 03:49:05;;;;;;;11.03;3.70;;;5.60;99.90;;;;;;5029541;28;20387;-74
2023/02/02 03:51:31;;;;;;;10.03;4.10;;;5.50;99.90;;;;;;5029566;28;20379;-73
2023/02/02 03:53:56;;;;;;;10.13;3.40;;;5.50;99.90;;;;;;5028252;28;20488;-73
2023/02/02 03:56:22;;;;;;;7.97;3.40;;;5.50;99.90;;;;;;5029370;28;20453;-74
2023/02/02 03:58:47;;;;;;;7.77;3.20;;;5.60;99.90;;;;;;5032630;28;20864;-73
2023/02/02 04:01:14;;;;;;;13.80;4.25;;;5.60;99.90;;;;;;5033822;28;20379;-73
2023/02/02 04:03:40;;;;;;;7.95;3.42;;;5.60;99.90;;;;;;5033519;28;20399;-73
2023/02/02 04:06:05;;;;;;;9.25;3.60;;;5.60;99.90;;;;;;5033112;28;20415;-73
2023/02/02 04:08:31;;;;;;;7.90;3.10;;;5.60;99.90;;;;;;5033686;28;20819;-74
2023/02/02 04:10:56;;;;;;;10.27;4.20;;;5.60;99.90;;;;;;5033653;28;20418;-74
2023/02/02 04:13:22;;;;;;;6.50;2.97;;;5.60;99.90;;;;;;5029892;28;20455;-73
2023/02/02 04:15:56;;;;;;;8.77;3.40;;;5.60;99.90;;;;;;5032107;28;20399;-74
2023/02/02 04:18:21;;;;;;;8.88;3.47;;;5.70;99.90;;;;;;5033400;28;20413;-73
2023/02/02 04:20:47;;;;;;;7.68;2.95;;;5.70;99.90;;;;;;5033391;28;20387;-73
2023/02/02 04:23:13;;;;;;;10.27;3.15;;;5.70;99.90;;;;;;5033395;28;20375;-74
2023/02/02 04:25:38;;;;;;;8.48;3.58;;;5.70;99.90;;;;;;5031766;28;20403;-74
2023/02/02 04:28:04;;;;;;;6.17;3.00;;;5.70;99.90;;;;;;5030464;28;20391;-74
2023/02/02 04:30:29;;;;;;;6.72;2.90;;;5.70;99.90;;;;;;5033092;28;20387;-74
2023/02/02 04:32:55;;;;;;;9.10;3.13;;;5.70;99.90;;;;;;5033191;28;20387;-74
2023/02/02 04:35:20;;;;;;;8.55;3.25;;;5.70;99.90;;;;;;5032836;28;20911;-74
2023/02/02 04:37:46;;;;;;;6.05;2.90;;;5.70;99.90;;;;;;5032986;28;20422;-74
2023/02/02 04:40:12;;;;;;;9.50;3.50;;;5.60;99.90;;;;;;5033185;28;20437;-74
2023/02/02 04:42:37;;;;;;;6.63;3.65;;;5.60;99.90;;;;;;5033165;28;20375;-73
2023/02/02 04:45:03;;;;;;;7.90;3.70;;;5.70;99.90;;;;;;5033009;28;20773;-74
2023/02/02 04:47:29;;;;;;;7.83;3.93;;;5.70;99.90;;;;;;5032765;28;20391;-74
2023/02/02 04:49:54;;;;;;;10.17;3.73;;;5.70;99.90;;;;;;5032881;28;20924;-75
2023/02/02 04:52:20;;;;;;;8.23;3.27;;;5.70;99.90;;;;;;5032936;28;20423;-74
2023/02/02 04:54:45;;;;;;;8.77;3.30;;;5.70;99.90;;;;;;5032886;28;20393;-74
2023/02/02 04:57:11;;;;;;;9.03;3.70;;;5.70;99.90;;;;;;5032717;28;20446;-73
2023/02/02 04:59:36;;;;;;;7.65;3.70;;;5.70;99.90;;;;;;5032761;28;20892;-73
2023/02/02 05:02:02;;;;;;;5.68;3.30;;;5.70;99.90;;;;;;5031314;28;20395;-73
2023/02/02 05:04:28;;;;;;;8.38;3.53;;;5.70;99.90;;;;;;5032435;28;20934;-72
2023/02/02 05:06:53;;;;;;;7.45;3.28;;;5.80;99.90;;;;;;5032412;28;20758;-72
2023/02/02 05:09:19;;;;;;;7.78;3.88;;;5.80;99.90;;;;;;5031587;28;20386;-72
2023/02/02 05:11:44;;;;;;;7.15;3.28;;;5.80;99.90;;;;;;5031294;28;20437;-73
2023/02/02 05:14:10;;;;;;;7.43;3.30;;;5.70;99.90;;;;;;5030503;28;20445;-73
2023/02/02 05:16:36;;;;;;;10.07;3.38;;;5.80;99.90;;;;;;5031952;28;20949;-72
2023/02/02 05:19:02;;;;;;;10.02;3.47;;;5.70;99.90;;;;;;5028668;28;20408;-73
2023/02/02 05:21:27;;;;;;;9.02;3.58;;;5.70;99.90;;;;;;5032245;28;20988;-72
2023/02/02 05:23:53;;;;;;;6.90;3.70;;;5.70;99.90;;;;;;5032617;28;20868;-73
2023/02/02 05:26:22;;;;;;;11.47;4.80;;;5.70;99.90;;;;;;5032153;28;20387;-72
2023/02/02 05:28:48;;;;;;;10.40;3.30;;;5.60;99.90;;;;;;5032477;28;20419;-72
2023/02/02 05:31:14;;;;;;;7.80;3.58;;;5.70;99.90;;;;;;5032387;28;20398;-72
2023/02/02 05:33:39;;;;;;;9.20;3.20;;;5.70;99.90;;;;;;5031918;28;20380;-72
2023/02/02 05:36:05;;;;;;;7.27;3.30;;;5.70;99.90;;;;;;5031809;28;20411;-73
2023/02/02 05:38:31;;;;;;;7.57;2.97;;;5.70;99.90;;;;;;5031959;28;20927;-73
2023/02/02 05:40:57;;;;;;;9.20;3.60;;;5.70;99.90;;;;;;5031945;28;20734;-73
2023/02/02 05:43:26;;;;;;;10.30;3.70;;;5.70;99.90;;;;;;5031772;28;20486;-73
2023/02/02 05:45:52;;;;;;;8.73;4.10;;;5.70;99.90;;;;;;5031611;28;20471;-73
2023/02/02 05:48:18;;;;;;;7.30;3.80;;;5.70;99.90;;;;;;5031766;28;20453;-73
2023/02/02 05:50:48;;;;;;;7.35;3.33;;;5.60;99.90;;;;;;5031941;28;20387;-74
2023/02/02 05:53:15;;;;;;;7.40;3.70;;;5.60;99.90;;;;;;5030549;28;21014;-74
2023/02/02 05:55:40;;;;;;;7.25;3.50;;;5.70;99.90;;;;;;5030920;28;20418;-74
2023/02/02 05:58:06;;;;;;;7.17;3.50;;;5.70;99.90;;;;;;5031604;28;20501;-73
2023/02/02 06:00:31;;;;;;;6.37;3.83;;;5.60;99.90;;;;;;5031550;28;20387;-74
2023/02/02 06:02:57;;;;;;;6.60;3.40;;;5.60;99.90;;;;;;5031438;28;20469;-74
2023/02/02 06:05:23;;;;;;;9.98;3.58;;;5.70;99.90;;;;;;5031453;28;20411;-74
2023/02/02 06:07:49;;;;;;;6.38;3.20;;;5.70;99.90;;;;;;5031453;28;20517;-73
2023/02/02 06:10:14;;;;;;;9.23;3.42;;;5.70;99.90;;;;;;5031144;28;20448;-74
2023/02/02 06:12:40;;;;;;;9.07;3.40;;;5.70;99.90;;;;;;5031384;28;20387;-73
2023/02/02 06:15:06;;;;;;;9.37;3.20;;;5.70;99.90;;;;;;5031261;28;20481;-73
2023/02/02 06:17:32;;;;;;;6.97;2.83;;;5.70;99.90;;;;;;5031009;28;20403;-74
2023/02/02 06:19:57;;;;;;;11.47;3.00;;;5.70;99.90;;;;;;5030921;28;20727;-74
2023/02/02 06:22:23;;;;;;;6.10;3.40;;;5.70;99.90;;;;;;5031184;28;20386;-74
2023/02/02 06:24:48;;;;;;;8.17;2.90;;;5.70;99.90;;;;;;5029856;28;20402;-74
2023/02/02 06:27:14;;;;;;;10.10;3.33;;;5.80;99.90;;;;;;5029455;28;20387;-74
2023/02/02 06:29:39;;;;;;;6.80;3.67;;;5.80;99.90;;;;;;5031019;28;20391;-74
2023/02/02 06:32:04;;;;;;;9.77;3.30;;;5.80;99.90;;;;;;5029525;28;20383;-74
2023/02/02 06:34:30;;;;;;;9.45;3.88;;;5.80;99.90;;;;;;5030714;28;20872;-74
2023/02/02 06:36:55;;;;;;;8.43;3.50;;;5.80;99.90;;;;;;5030196;28;20411;-74
2023/02/02 06:39:21;;;;;;;6.87;3.40;;;5.80;99.90;;;;;;5030976;28;20865;-73
2023/02/02 06:41:47;;;;;;;6.87;3.00;;;5.80;99.90;;;;;;5030757;28;20477;-74
2023/02/02 06:44:14;;;;;;;9.77;3.13;;;5.80;99.90;;;;;;5031007;28;20387;-73
2023/02/02 06:46:40;;;;;;;11.10;3.20;;;5.80;99.90;;;;;;5029965;28;20402;-73
2023/02/02 06:49:05;;;;;;;9.70;3.28;;;5.70;99.90;;;;;;5030318;28;20390;-73
2023/02/02 06:51:31;;;;;;;8.10;3.10;;;5.80;99.90;;;;;;5031510;28;20387;-73
2023/02/02 06:53:56;;;;;;;10.90;3.20;;;5.70;99.90;;;;;;5030919;28;20387;-73
2023/02/02 06:56:22;;;;;;;7.50;3.30;;;5.80;99.90;;;;;;5030309;28;20491;-73
2023/02/02 06:58:47;;;;;;;8.05;3.67;;;5.70;99.90;;;;;;5030764;28;20402;-73
2023/02/02 07:01:13;;;;;;;11.15;4.40;;;5.70;99.90;;;;;;5030454;28;20383;-73
2023/02/02 07:03:39;;;;;;;6.63;3.20;;;5.80;99.90;;;;;;5030535;28;20395;-72
2023/02/02 07:06:21;;;;;;;7.85;3.30;;;5.80;99.90;;;;;;5029675;28;20391;-74
2023/02/02 07:08:48;;;;;;;6.35;3.13;;;5.80;99.90;;;;;;5030670;28;20383;-73
2023/02/02 07:11:14;;;;;;;5.68;3.15;;;5.80;99.90;;;;;;5030090;28;20938;-73
2023/02/02 07:13:40;;;;;;;10.77;3.97;;;5.80;99.90;;;;;;5027986;28;20391;-72
2023/02/02 07:16:08;;;;;;;11.15;3.55;;;5.80;99.90;;;;;;5027552;28;20458;-73
2023/02/02 07:18:35;;;;;;;8.10;3.33;;;6.00;99.90;;;;;;5029106;28;20873;-73
2023/02/02 07:21:01;;;;;;;11.27;3.47;;;5.90;99.90;;;;;;5030095;28;20379;-73
2023/02/02 07:23:28;;;;;;;8.25;3.85;;;5.90;99.90;;;;;;5030306;28;20383;-74
2023/02/02 07:26:05;;;;;;;7.80;3.40;;;5.90;99.90;;;;;;5030183;28;20405;-73
2023/02/02 07:28:31;;;;;;;6.85;3.15;;;5.90;99.90;;;;;;5030539;28;20517;-73
2023/02/02 07:30:57;;;;;;;9.15;3.47;;;5.90;99.90;;;;;;5030443;28;20513;-73
2023/02/02 07:33:23;;;;;;;7.28;3.40;;;5.90;99.90;;;;;;5023332;28;20473;-74
2023/02/02 07:35:49;;;;;;;7.20;3.10;;;5.90;99.90;;;;;;5034097;28;20470;-75
2023/02/02 07:38:14;;;;;;;6.97;3.10;;;5.90;99.90;;;;;;5032931;28;20383;-75
2023/02/02 07:40:40;;;;;;;7.10;3.90;;;5.90;99.90;;;;;;5034109;28;20398;-74
2023/02/02 07:43:05;;;;;;;8.63;4.00;;;5.90;99.90;;;;;;5033333;28;20383;-74
2023/02/02 07:45:31;;;;;;;6.80;3.20;;;5.80;99.90;;;;;;5033988;28;20876;-75
2023/02/02 07:47:57;;;;;;;7.83;3.40;;;5.80;99.90;;;;;;5034096;28;20381;-73
2023/02/02 07:50:24;;;;;;;5.65;2.90;;;5.90;99.90;;;;;;5034873;28;20389;-74
2023/02/02 07:52:50;;;;;;;7.63;3.13;;;5.90;99.90;;;;;;5034255;28;20423;-73
2023/02/02 07:55:16;;;;;;;8.00;3.70;;;5.90;99.90;;;;;;5033844;28;20394;-73
2023/02/02 07:57:41;;;;;;;8.87;3.60;;;6.00;99.90;;;;;;5033662;28;20403;-73
2023/02/02 08:00:08;;;;;;;9.97;3.57;;;5.90;99.90;;;;;;5033985;28;20390;-74
2023/02/02 08:02:34;;;;;;;6.43;3.30;;;5.80;99.90;;;;;;5033700;28;20942;-74
2023/02/02 08:04:59;;;;;;;8.57;3.50;;;5.80;99.90;;;;;;5033834;28;20403;-73
2023/02/02 08:07:25;;;;;;;9.13;3.33;;;5.80;99.90;;;;;;5034109;28;20470;-73
2023/02/02 08:09:50;;;;;;;7.77;3.80;;;5.90;99.90;;;;;;5033709;28;20419;-74
2023/02/02 08:12:17;;;;;;;9.70;3.30;;;5.90;99.90;;;;;;5032220;28;20425;-73
2023/02/02 08:14:46;;;;;;;10.15;3.65;;;5.90;99.90;;;;;;5033838;28;20415;-75
2023/02/02 08:17:12;;;;;;;6.67;3.20;;;6.00;99.90;;;;;;5033117;28;20407;-74
2023/02/02 08:19:37;;;;;;;11.48;4.20;;;6.10;99.90;;;;;;5032236;28;20418;-74
2023/02/02 08:22:03;;;;;;;9.68;3.58;;;6.00;99.90;;;;;;5032114;28;20609;-73
2023/02/02 08:24:28;;;;;;;5.93;3.33;;;6.00;99.90;;;;;;5033440;28;20387;-73
2023/02/02 08:26:54;;;;;;;6.70;3.13;;;6.00;99.90;;;;;;5033135;28;20387;-74
2023/02/02 08:29:19;;;;;;;9.80;3.97;;;6.00;99.90;;;;;;5033358;28;20390;-75
2023/02/02 08:31:45;;;;;;;10.00;3.20;;;6.10;99.90;;;;;;5033473;28;20464;-74
2023/02/02 08:34:11;;;;;;;5.60;3.07;;;6.10;99.90;;;;;;5033450;28;20541;-74
2023/02/02 08:36:37;;;;;;;6.78;3.10;;;6.10;99.90;;;;;;5031911;28;20422;-75
2023/02/02 08:39:06;;;;;;;6.63;2.60;;;6.20;99.90;;;;;;5033806;28;20383;-74
2023/02/02 08:41:32;;;;;;;6.45;2.90;;;6.20;99.90;;;;;;5033134;28;20449;-74
2023/02/02 08:43:58;;;;;;;4.70;2.80;;;6.30;99.90;;;;;;5032811;28;20387;-74
2023/02/02 08:46:24;;;;;;;6.32;3.22;;;6.20;99.90;;;;;;5031663;28;20398;-73
2023/02/02 08:48:50;;;;;;;9.93;3.30;;;6.30;99.90;;;;;;5032949;28;20422;-73
2023/02/02 08:51:18;;;;;;;4.55;2.65;;;6.30;99.90;;;;;;5031739;28;20418;-73
2023/02/02 08:53:44;;;;;;;8.60;3.10;;;6.30;99.90;;;;;;5032939;28;20601;-74
2023/02/02 08:56:15;;;;;;;7.45;2.78;;;6.30;99.90;;;;;;5032724;28;20403;-73
2023/02/02 08:58:45;;;;;;;7.75;3.10;;;6.30;99.90;;;;;;5032855;28;20387;-74
2023/02/02 09:01:16;;;;;;;8.88;3.15;;;6.40;99.90;;;;;;5033045;28;20812;-73
2023/02/02 09:03:43;;;;;;;5.20;2.60;;;6.40;99.90;;;;;;5086731;22;20424;-74
2023/02/02 09:06:11;;;;;;;6.43;2.97;;;6.50;99.90;;;;;;5072251;28;20440;-75
2023/02/02 09:08:37;;;;;;;6.43;2.90;;;6.50;99.90;;;;;;5072607;28;20376;-75
2023/02/02 09:11:08;;;;;;;6.40;2.65;;;6.40;99.90;;;;;;5072660;28;20824;-75
2023/02/02 09:13:35;;;;;;;8.37;2.93;;;6.50;99.90;;;;;;5072518;28;20857;-75
2023/02/02 09:16:01;;;;;;;9.60;3.00;;;6.40;99.90;;;;;;5073423;28;20379;-75
2023/02/02 09:18:27;;;;;;;8.38;3.80;;;6.40;99.90;;;;;;5073656;28;20456;-75
2023/02/02 09:20:52;;;;;;;5.00;3.05;;;6.40;99.90;;;;;;5074566;28;20521;-76
2023/02/02 09:23:18;;;;;;;5.50;2.90;;;6.40;99.90;;;;;;5074332;28;20379;-75
2023/02/02 09:25:44;;;;;;;6.00;3.10;;;6.40;99.90;;;;;;5072264;28;20384;-75
2023/02/02 09:28:09;;;;;;;7.18;2.70;;;6.50;99.90;;;;;;5072296;28;20395;-75
2023/02/02 09:30:35;;;;;;;6.85;3.22;;;6.40;99.90;;;;;;5072394;28;20465;-75
2023/02/02 09:33:00;;;;;;;6.07;3.00;;;6.50;99.90;;;;;;5072113;28;20380;-75
2023/02/02 09:35:26;;;;;;;6.97;3.10;;;6.40;99.90;;;;;;5071950;28;20888;-75
2023/02/02 09:37:51;;;;;;;5.77;3.00;;;6.40;99.90;;;;;;5071858;28;20405;-76
2023/02/02 09:40:19;;;;;;;4.47;2.60;;;6.50;99.90;;;;;;5071977;28;20470;-75
2023/02/02 09:43:00;;;;;;;9.05;3.30;;;6.60;99.90;;;;;;5071856;28;20379;-75
2023/02/02 09:45:44;;;;;;;7.40;3.00;;;6.50;99.90;;;;;;5071928;28;20470;-75
2023/02/02 09:48:13;;;;;;;4.38;2.97;;;6.60;99.90;;;;;;5071922;28;20449;-75
2023/02/02 09:50:49;;;;;;;8.73;2.80;;;6.50;99.90;;;;;;5072014;28;20375;-75
2023/02/02 09:53:20;;;;;;;6.97;2.90;;;6.60;99.90;;;;;;5070366;28;20764;-75
2023/02/02 09:55:49;;;;;;;7.20;3.20;;;6.60;99.90;;;;;;5070775;28;20479;-75
2023/02/02 09:58:23;;;;;;;4.10;2.55;;;6.40;99.90;;;;;;5070373;28;20395;-75
2023/02/02 10:01:24;;;;;;;6.88;3.10;;;6.50;99.90;;;;;;5071740;28;20375;-75
2023/02/02 10:04:11;;;;;;;6.50;2.50;;;6.50;99.90;;;;;;5070896;28;20396;-75
2023/02/02 10:06:39;;;;;;;7.20;3.30;;;6.50;99.90;;;;;;5070987;28;20403;-74
2023/02/02 10:09:39;;;;;;;8.40;3.53;;;6.60;99.90;;;;;;5071353;28;20454;-75
2023/02/02 10:12:23;;;;;;;4.97;2.75;;;6.60;99.90;;;;;;5071363;28;20382;-75
2023/02/02 10:14:58;;;;;;;4.70;2.47;;;6.60;99.90;;;;;;5071252;28;20390;-74
2023/02/02 10:17:36;;;;;;;3.92;2.55;;;6.50;99.90;;;;;;5069710;28;20402;-75
2023/02/02 10:20:15;;;;;;;5.53;2.50;;;6.60;99.90;;;;;;5071313;28;20390;-75
2023/02/02 10:22:43;;;;;;;7.32;3.03;;;6.50;99.90;;;;;;5071176;28;20749;-75
2023/02/02 10:25:12;;;;;;;5.23;2.33;;;6.60;99.90;;;;;;5069894;28;20553;-75
2023/02/02 10:27:39;;;;;;;6.80;3.75;;;6.60;99.90;;;;;;5070920;28;20379;-75
2023/02/02 10:30:41;;;;;;;5.88;3.00;;;6.50;99.90;;;;;;5070998;28;20828;-75
2023/02/02 10:33:15;;;;;;;4.47;2.70;;;6.50;99.90;;;;;;5070947;28;20474;-75
2023/02/02 10:35:58;;;;;;;5.85;3.30;;;6.50;99.90;;;;;;5070651;28;20386;-75
2023/02/02 10:38:39;;;;;;;8.33;3.60;;;6.60;99.90;;;;;;5070964;28;20542;-75
2023/02/02 10:41:29;;;;;;;4.07;2.95;;;6.50;99.90;;;;;;5070899;28;20372;-75
2023/02/02 10:44:15;;;;;;;6.68;3.03;;;6.60;99.90;;;;;;5070591;28;20751;-75
2023/02/02 10:46:52;;;;;;;5.90;2.95;;;6.50;99.90;;;;;;5070831;28;20372;-75
2023/02/02 10:49:36;;;;;;;6.07;2.80;;;6.50;99.90;;;;;;5069660;28;20392;-75
2023/02/02 10:52:10;;;;;;;6.13;2.63;;;6.70;99.90;;;;;;5070802;28;20458;-75
2023/02/02 10:54:52;;;;;;;5.32;2.97;;;6.70;99.90;;;;;;5073451;28;20411;-75
2023/02/02 10:57:36;;;;;;;4.93;2.60;;;6.70;99.90;;;;;;5072367;28;20408;-74
2023/02/02 11:00:08;;;;;;;4.85;2.20;;;6.60;99.90;;;;;;5070666;28;20372;-74
2023/02/02 11:02:33;;;;;;;4.93;2.50;;;6.50;99.90;;;;;;5070378;28;20449;-74
2023/02/02 11:07:43;;;;;;;5.88;2.67;;;6.50;99.90;;;;;;5049557;28;20369;-74
2023/02/02 11:10:09;;;;;;;6.50;2.75;;;6.50;99.90;;;;;;5050676;28;20871;-75
2023/02/02 11:12:38;;;;;;;5.95;2.50;;;6.50;99.90;;;;;;5050475;28;20830;-75
2023/02/02 11:15:24;;;;;;;4.75;2.83;;;6.60;99.90;;;;;;5057508;28;20723;-75
2023/02/02 11:17:50;;;;;;;5.32;2.90;;;6.60;99.90;;;;;;5070409;28;20403;-75
2023/02/02 11:20:34;;;;;;;7.23;2.90;;;6.60;99.90;;;;;;5069336;28;20392;-75
2023/02/02 11:23:04;;;;;;;7.15;3.00;;;6.60;99.90;;;;;;5070409;28;20376;-74
2023/02/02 11:25:36;;;;;;;8.75;2.83;;;6.60;99.90;;;;;;5068000;28;20376;-75
2023/02/02 11:28:17;;;;;;;4.93;2.80;;;6.70;99.90;;;;;;5070435;28;20470;-75
2023/02/02 11:30:51;;;;;;;4.82;2.50;;;6.80;99.90;;;;;;5070487;28;20391;-75
2023/02/02 11:33:29;;;;;;;4.35;2.30;;;6.90;99.90;;;;;;5070348;28;20424;-76
2023/02/02 11:36:01;;;;;;;8.18;2.90;;;6.90;99.90;;;;;;5068563;28;20392;-75
2023/02/02 11:38:27;;;;;;;5.50;2.40;;;7.00;99.90;;;;;;5070361;28;20516;-75
2023/02/02 11:41:02;;;;;;;3.40;2.00;;;7.00;99.90;;;;;;5069968;28;20379;-76
2023/02/02 11:43:49;;;;;;;6.97;2.85;;;7.00;99.90;;;;;;5061262;28;20383;-76
2023/02/02 11:46:22;;;;;;;4.97;2.30;;;7.00;99.90;;;;;;5068523;28;20404;-75
2023/02/02 11:48:57;;;;;;;5.47;2.30;;;7.00;99.90;;;;;;5070067;28;20861;-75
2023/02/02 11:51:25;;;;;;;4.70;2.20;;;7.10;99.90;;;;;;5070092;28;20427;-75
2023/02/02 11:54:00;;;;;;;6.53;2.30;;;7.10;99.90;;;;;;5070075;28;20909;-75
2023/02/02 11:56:26;;;;;;;10.25;3.00;;;7.10;99.90;;;;;;5068454;28;20978;-75
2023/02/02 11:58:58;;;;;;;4.70;2.40;;;7.10;99.90;;;;;;5069805;28;20407;-76
2023/02/02 12:01:30;;;;;;;3.90;2.13;;;7.10;99.90;;;;;;5050277;28;20928;-75
2023/02/02 12:04:00;;;;;;;4.37;2.10;;;7.10;99.90;;;;;;5049677;28;20481;-75
2023/02/02 12:06:37;;;;;;;5.55;3.00;;;7.00;99.90;;;;;;5068117;28;20384;-74
2023/02/02 12:09:54;;;;;;;6.07;3.20;;;7.20;99.90;;;;;;5070282;28;20375;-77
2023/02/02 12:12:38;;;;;;;5.30;2.05;;;7.10;99.90;;;;;;5024501;28;20425;-77
2023/02/02 12:15:28;;;;;;;6.53;2.08;;;7.20;99.90;;;;;;5067106;28;20384;-75
2023/02/02 12:18:09;;;;;;;7.57;3.20;;;7.20;99.90;;;;;;5069666;28;20461;-75
2023/02/02 12:20:46;;;;;;;5.72;2.50;;;7.10;99.90;;;;;;5073459;28;20380;-75
2023/02/02 12:23:22;;;;;;;7.43;2.60;;;7.10;99.90;;;;;;5073626;28;20370;-75
2023/02/02 12:26:03;;;;;;;5.22;2.58;;;7.20;99.90;;;;;;5073159;28;20465;-74
2023/02/02 12:28:37;;;;;;;6.07;2.53;;;7.20;99.90;;;;;;5073592;28;20379;-76
2023/02/02 12:31:13;;;;;;;6.23;2.60;;;7.10;99.90;;;;;;5071949;28;20459;-76
2023/02/02 12:33:53;;;;;;;6.13;2.67;;;7.10;99.90;;;;;;5073373;28;20388;-76
2023/02/02 12:36:41;;;;;;;7.93;2.83;;;7.10;99.90;;;;;;5072849;28;20414;-75
2023/02/02 12:39:31;;;;;;;11.40;3.73;;;7.10;99.90;;;;;;5073426;28;20407;-75
2023/02/02 12:42:26;;;;;;;4.90;2.95;;;7.10;99.90;;;;;;5072969;28;20875;-76
2023/02/02 12:45:07;;;;;;;7.37;2.60;;;7.10;99.90;;;;;;5073092;28;20445;-75
2023/02/02 12:48:03;;;;;;;8.15;3.30;;;7.00;99.90;;;;;;5072987;28;20884;-75
2023/02/02 12:50:58;;;;;;;6.43;2.88;;;7.00;99.90;;;;;;5073044;28;20388;-75
2023/02/02 12:54:01;;;;;;;8.80;3.38;;;7.00;99.90;;;;;;5069563;28;20911;-75
2023/02/02 12:56:41;;;;;;;8.18;3.40;;;7.00;99.90;;;;;;5040907;28;20415;-75
2023/02/02 12:59:33;;;;;;;9.90;3.90;;;7.00;99.90;;;;;;5067821;28;20441;-75
2023/02/02 13:02:20;;;;;;;9.10;3.40;;;7.00;99.90;;;;;;5068702;28;20752;-74
2023/02/02 13:04:48;;;;;;;9.23;3.50;;;6.90;99.90;;;;;;5064198;28;20384;-74
2023/02/02 13:07:31;;;;;;;8.18;3.15;;;6.90;99.90;;;;;;5071323;28;20384;-74
2023/02/02 13:10:07;;;;;;;8.65;3.80;;;6.90;99.90;;;;;;5072247;28;20376;-76
2023/02/02 13:12:39;;;;;;;5.63;3.00;;;6.90;99.90;;;;;;5071609;28;20399;-75
2023/02/02 13:15:08;;;;;;;9.10;3.60;;;6.90;99.90;;;;;;5069507;28;20401;-75
2023/02/02 13:17:45;;;;;;;7.32;3.10;;;6.90;99.90;;;;;;5071822;28;20407;-75
2023/02/02 13:20:20;;;;;;;7.47;3.20;;;6.80;99.90;;;;;;5072111;28;20943;-75
2023/02/02 13:22:48;;;;;;;5.13;3.13;;;6.90;99.90;;;;;;5072682;28;20865;-75
2023/02/02 13:25:21;;;;;;;7.07;3.53;;;6.90;99.90;;;;;;5071986;28;20391;-75